Terminal Aerodrome Forecast
Issued by NWS

Home | Current Version | Previous Version | Graphics & Text | Print | Product List | Glossary On
Versions: 1 2 3 4 5 6 7 8 9 10 11 12 13 14 15 16 17 18 19
749
FTUS43 KICT 221135 AAB
TAFRSL
TAF AMD
KRSL 221135Z 2212/2312 VRB05KT P6SM SCT250
     FM221300 18010KT P6SM FEW250
     FM221600 19018G25KT P6SM SKC
     FM222300 18012KT P6SM SCT200
     FM230100 23007KT P6SM VCTS SCT070CB BKN200
     FM230200 03010KT P6SM VCTS SCT070CB BKN250
     FM230600 02012KT P6SM VCSH BKN060=

USA.gov is the U.S. government's official web portal to all federal, state and local government web resources and services.